sensor_id;sensor_type;location;lat;lon;timestamp;temperature;humidity
58809;DHT22;44579;51.672;7.834;2023-06-19T00:02:26;24.90;39.10
58809;DHT22;44579;51.672;7.834;2023-06-19T00:04:53;24.90;39.00
58809;DHT22;44579;51.672;7.834;2023-06-19T00:07:19;24.90;39.00
58809;DHT22;44579;51.672;7.834;2023-06-19T00:09:48;24.80;39.10
58809;DHT22;44579;51.672;7.834;2023-06-19T00:12:15;24.80;39.10
58809;DHT22;44579;51.672;7.834;2023-06-19T00:14:42;24.80;39.20
58809;DHT22;44579;51.672;7.834;2023-06-19T00:17:09;24.80;39.20
58809;DHT22;44579;51.672;7.834;2023-06-19T00:19:36;24.70;39.30
58809;DHT22;44579;51.672;7.834;2023-06-19T00:22:03;24.70;39.40
58809;DHT22;44579;51.672;7.834;2023-06-19T00:24:30;24.60;39.40
58809;DHT22;44579;51.672;7.834;2023-06-19T00:26:57;24.60;39.50
58809;DHT22;44579;51.672;7.834;2023-06-19T00:29:29;24.60;39.50
58809;DHT22;44579;51.672;7.834;2023-06-19T00:31:56;24.60;39.60
58809;DHT22;44579;51.672;7.834;2023-06-19T00:34:23;24.50;39.60
58809;DHT22;44579;51.672;7.834;2023-06-19T00:36:51;24.50;39.60
58809;DHT22;44579;51.672;7.834;2023-06-19T00:39:23;24.40;39.60
58809;DHT22;44579;51.672;7.834;2023-06-19T00:41:51;24.40;39.70
58809;DHT22;44579;51.672;7.834;2023-06-19T00:44:18;24.40;39.70
58809;DHT22;44579;51.672;7.834;2023-06-19T00:46:45;24.30;39.80
58809;DHT22;44579;51.672;7.834;2023-06-19T00:49:13;24.30;39.90
58809;DHT22;44579;51.672;7.834;2023-06-19T00:51:41;24.30;39.90
58809;DHT22;44579;51.672;7.834;2023-06-19T00:54:08;24.30;39.90
58809;DHT22;44579;51.672;7.834;2023-06-19T00:56:36;24.30;40.00
58809;DHT22;44579;51.672;7.834;2023-06-19T00:59:05;24.30;40.00
58809;DHT22;44579;51.672;7.834;2023-06-19T01:01:32;24.30;40.00
58809;DHT22;44579;51.672;7.834;2023-06-19T01:03:59;24.30;40.00
58809;DHT22;44579;51.672;7.834;2023-06-19T01:06:27;24.30;40.00
58809;DHT22;44579;51.672;7.834;2023-06-19T01:09:05;24.20;40.10
58809;DHT22;44579;51.672;7.834;2023-06-19T01:11:37;24.20;40.20
58809;DHT22;44579;51.672;7.834;2023-06-19T01:14:08;24.20;40.20
58809;DHT22;44579;51.672;7.834;2023-06-19T01:16:35;24.10;40.20
58809;DHT22;44579;51.672;7.834;2023-06-19T01:19:03;24.10;40.20
58809;DHT22;44579;51.672;7.834;2023-06-19T01:21:30;24.10;40.20
58809;DHT22;44579;51.672;7.834;2023-06-19T01:23:57;24.10;40.20
58809;DHT22;44579;51.672;7.834;2023-06-19T01:26:24;24.10;40.20
58809;DHT22;44579;51.672;7.834;2023-06-19T01:28:56;24.10;40.20
58809;DHT22;44579;51.672;7.834;2023-06-19T01:31:28;24.00;40.20
58809;DHT22;44579;51.672;7.834;2023-06-19T01:33:56;24.00;40.90
58809;DHT22;44579;51.672;7.834;2023-06-19T01:36:23;24.00;40.30
58809;DHT22;44579;51.672;7.834;2023-06-19T01:38:51;24.00;40.60
58809;DHT22;44579;51.672;7.834;2023-06-19T01:41:19;24.00;40.40
58809;DHT22;44579;51.672;7.834;2023-06-19T01:43:46;24.00;40.40
58809;DHT22;44579;51.672;7.834;2023-06-19T01:46:13;23.90;40.40
58809;DHT22;44579;51.672;7.834;2023-06-19T01:48:40;24.00;40.40
58809;DHT22;44579;51.672;7.834;2023-06-19T01:51:07;24.00;40.40
58809;DHT22;44579;51.672;7.834;2023-06-19T01:53:34;24.00;40.50
58809;DHT22;44579;51.672;7.834;2023-06-19T01:56:03;23.90;40.40
58809;DHT22;44579;51.672;7.834;2023-06-19T01:58:30;23.90;40.50
58809;DHT22;44579;51.672;7.834;2023-06-19T02:00:57;23.90;40.50
58809;DHT22;44579;51.672;7.834;2023-06-19T02:03:24;23.90;40.60
58809;DHT22;44579;51.672;7.834;2023-06-19T02:05:52;23.90;40.60
58809;DHT22;44579;51.672;7.834;2023-06-19T02:08:19;23.90;40.60
58809;DHT22;44579;51.672;7.834;2023-06-19T02:10:46;23.90;40.60
58809;DHT22;44579;51.672;7.834;2023-06-19T02:13:13;23.90;40.60
58809;DHT22;44579;51.672;7.834;2023-06-19T02:15:40;23.90;40.70
58809;DHT22;44579;51.672;7.834;2023-06-19T02:18:07;23.90;40.70
58809;DHT22;44579;51.672;7.834;2023-06-19T02:20:34;23.80;40.70
58809;DHT22;44579;51.672;7.834;2023-06-19T02:23:01;23.80;40.80
58809;DHT22;44579;51.672;7.834;2023-06-19T02:25:29;23.80;40.80
58809;DHT22;44579;51.672;7.834;2023-06-19T02:27:56;23.80;40.90
58809;DHT22;44579;51.672;7.834;2023-06-19T02:30:23;23.80;41.00
58809;DHT22;44579;51.672;7.834;2023-06-19T02:32:50;23.80;41.00
58809;DHT22;44579;51.672;7.834;2023-06-19T02:35:18;23.70;41.00
58809;DHT22;44579;51.672;7.834;2023-06-19T02:37:45;23.70;41.10
58809;DHT22;44579;51.672;7.834;2023-06-19T02:40:13;23.70;41.10
58809;DHT22;44579;51.672;7.834;2023-06-19T02:42:41;23.60;41.10
58809;DHT22;44579;51.672;7.834;2023-06-19T02:45:07;23.60;41.20
58809;DHT22;44579;51.672;7.834;2023-06-19T02:47:34;23.60;41.30
58809;DHT22;44579;51.672;7.834;2023-06-19T02:50:02;23.60;41.20
58809;DHT22;44579;51.672;7.834;2023-06-19T02:52:30;23.70;41.30
58809;DHT22;44579;51.672;7.834;2023-06-19T02:54:58;23.60;41.30
58809;DHT22;44579;51.672;7.834;2023-06-19T02:57:25;23.60;41.30
58809;DHT22;44579;51.672;7.834;2023-06-19T02:59:52;23.60;41.30
58809;DHT22;44579;51.672;7.834;2023-06-19T03:02:19;23.70;41.30
58809;DHT22;44579;51.672;7.834;2023-06-19T03:04:46;23.70;41.30
58809;DHT22;44579;51.672;7.834;2023-06-19T03:07:13;23.70;41.30
58809;DHT22;44579;51.672;7.834;2023-06-19T03:09:41;23.70;41.30
58809;DHT22;44579;51.672;7.834;2023-06-19T03:12:08;23.70;41.30
58809;DHT22;44579;51.672;7.834;2023-06-19T03:14:35;23.70;41.30
58809;DHT22;44579;51.672;7.834;2023-06-19T03:17:02;23.70;41.40
58809;DHT22;44579;51.672;7.834;2023-06-19T03:19:30;23.80;41.50
58809;DHT22;44579;51.672;7.834;2023-06-19T03:21:58;23.70;41.50
58809;DHT22;44579;51.672;7.834;2023-06-19T03:24:25;23.70;41.50
58809;DHT22;44579;51.672;7.834;2023-06-19T03:26:59;23.70;41.50
58809;DHT22;44579;51.672;7.834;2023-06-19T03:29:26;23.70;41.50
58809;DHT22;44579;51.672;7.834;2023-06-19T03:31:59;23.70;41.50
58809;DHT22;44579;51.672;7.834;2023-06-19T03:34:32;23.70;41.60
58809;DHT22;44579;51.672;7.834;2023-06-19T03:37:01;23.60;41.70
58809;DHT22;44579;51.672;7.834;2023-06-19T03:39:28;23.60;41.80
58809;DHT22;44579;51.672;7.834;2023-06-19T03:42:02;23.60;41.70
58809;DHT22;44579;51.672;7.834;2023-06-19T03:44:29;23.60;41.70
58809;DHT22;44579;51.672;7.834;2023-06-19T03:46:56;23.60;41.80
58809;DHT22;44579;51.672;7.834;2023-06-19T03:49:23;23.60;41.90
58809;DHT22;44579;51.672;7.834;2023-06-19T03:51:49;23.60;41.90
58809;DHT22;44579;51.672;7.834;2023-06-19T03:54:16;23.60;41.90
58809;DHT22;44579;51.672;7.834;2023-06-19T03:56:43;23.60;41.90
58809;DHT22;44579;51.672;7.834;2023-06-19T03:59:11;23.60;41.90
58809;DHT22;44579;51.672;7.834;2023-06-19T04:01:41;23.70;42.00
58809;DHT22;44579;51.672;7.834;2023-06-19T04:04:09;23.60;42.00
58809;DHT22;44579;51.672;7.834;2023-06-19T04:06:36;23.60;42.00
58809;DHT22;44579;51.672;7.834;2023-06-19T04:09:03;23.70;42.10
58809;DHT22;44579;51.672;7.834;2023-06-19T04:11:29;23.70;42.10
58809;DHT22;44579;51.672;7.834;2023-06-19T04:13:56;23.60;42.20
58809;DHT22;44579;51.672;7.834;2023-06-19T04:16:23;23.60;42.20
58809;DHT22;44579;51.672;7.834;2023-06-19T04:18:50;23.60;42.40
58809;DHT22;44579;51.672;7.834;2023-06-19T04:21:17;23.60;42.50
58809;DHT22;44579;51.672;7.834;2023-06-19T04:23:43;23.60;42.60
58809;DHT22;44579;51.672;7.834;2023-06-19T04:26:10;23.60;42.70
58809;DHT22;44579;51.672;7.834;2023-06-19T04:28:38;23.70;42.80
58809;DHT22;44579;51.672;7.834;2023-06-19T04:31:06;23.70;42.80
58809;DHT22;44579;51.672;7.834;2023-06-19T04:33:32;23.80;42.90
58809;DHT22;44579;51.672;7.834;2023-06-19T04:35:59;23.90;43.00
58809;DHT22;44579;51.672;7.834;2023-06-19T04:38:27;24.10;43.20
58809;DHT22;44579;51.672;7.834;2023-06-19T04:40:54;24.20;43.30
58809;DHT22;44579;51.672;7.834;2023-06-19T04:43:21;24.30;43.40
58809;DHT22;44579;51.672;7.834;2023-06-19T04:45:47;24.40;43.70
58809;DHT22;44579;51.672;7.834;2023-06-19T04:48:14;24.50;43.80
58809;DHT22;44579;51.672;7.834;2023-06-19T04:50:41;24.60;44.10
58809;DHT22;44579;51.672;7.834;2023-06-19T04:53:08;24.70;44.40
58809;DHT22;44579;51.672;7.834;2023-06-19T04:55:34;24.70;45.10
58809;DHT22;44579;51.672;7.834;2023-06-19T04:58:01;24.80;45.20
58809;DHT22;44579;51.672;7.834;2023-06-19T05:00:28;24.90;45.40
58809;DHT22;44579;51.672;7.834;2023-06-19T05:02:54;24.90;45.70
58809;DHT22;44579;51.672;7.834;2023-06-19T05:05:27;25.00;45.80
58809;DHT22;44579;51.672;7.834;2023-06-19T05:07:53;25.10;46.00
58809;DHT22;44579;51.672;7.834;2023-06-19T05:10:20;25.10;46.40
58809;DHT22;44579;51.672;7.834;2023-06-19T05:12:48;25.20;46.50
58809;DHT22;44579;51.672;7.834;2023-06-19T05:15:14;25.30;46.70
58809;DHT22;44579;51.672;7.834;2023-06-19T05:17:41;25.40;46.90
58809;DHT22;44579;51.672;7.834;2023-06-19T05:20:08;25.50;47.00
58809;DHT22;44579;51.672;7.834;2023-06-19T05:22:35;25.60;47.60
58809;DHT22;44579;51.672;7.834;2023-06-19T05:25:03;25.60;47.90
58809;DHT22;44579;51.672;7.834;2023-06-19T05:27:30;25.60;48.20
58809;DHT22;44579;51.672;7.834;2023-06-19T05:29:57;25.60;48.50
58809;DHT22;44579;51.672;7.834;2023-06-19T05:32:24;25.60;48.80
58809;DHT22;44579;51.672;7.834;2023-06-19T05:34:51;25.70;48.90
58809;DHT22;44579;51.672;7.834;2023-06-19T05:37:18;25.80;48.90
58809;DHT22;44579;51.672;7.834;2023-06-19T05:39:45;25.90;49.30
58809;DHT22;44579;51.672;7.834;2023-06-19T05:42:12;25.90;49.60
58809;DHT22;44579;51.672;7.834;2023-06-19T05:44:40;25.90;49.80
58809;DHT22;44579;51.672;7.834;2023-06-19T05:47:10;26.10;49.90
58809;DHT22;44579;51.672;7.834;2023-06-19T05:49:37;26.20;49.90
58809;DHT22;44579;51.672;7.834;2023-06-19T05:52:04;26.20;50.10
58809;DHT22;44579;51.672;7.834;2023-06-19T05:54:31;26.20;50.30
58809;DHT22;44579;51.672;7.834;2023-06-19T05:56:58;26.30;50.80
58809;DHT22;44579;51.672;7.834;2023-06-19T05:59:27;26.30;51.00
58809;DHT22;44579;51.672;7.834;2023-06-19T06:01:54;26.40;51.40
58809;DHT22;44579;51.672;7.834;2023-06-19T06:04:22;26.40;51.90
58809;DHT22;44579;51.672;7.834;2023-06-19T06:06:49;26.60;52.00
58809;DHT22;44579;51.672;7.834;2023-06-19T06:09:16;26.70;52.10
58809;DHT22;44579;51.672;7.834;2023-06-19T06:11:43;26.80;52.10
58809;DHT22;44579;51.672;7.834;2023-06-19T06:14:10;26.90;52.40
58809;DHT22;44579;51.672;7.834;2023-06-19T06:16:39;26.90;52.70
58809;DHT22;44579;51.672;7.834;2023-06-19T06:19:07;26.90;53.10
58809;DHT22;44579;51.672;7.834;2023-06-19T06:21:34;27.00;53.20
58809;DHT22;44579;51.672;7.834;2023-06-19T06:24:01;27.10;53.20
58809;DHT22;44579;51.672;7.834;2023-06-19T06:26:29;27.10;53.70
58809;DHT22;44579;51.672;7.834;2023-06-19T06:28:56;27.10;53.50
58809;DHT22;44579;51.672;7.834;2023-06-19T06:31:23;27.00;53.40
58809;DHT22;44579;51.672;7.834;2023-06-19T06:33:50;26.80;53.40
58809;DHT22;44579;51.672;7.834;2023-06-19T06:36:17;26.80;53.30
58809;DHT22;44579;51.672;7.834;2023-06-19T06:39:01;26.80;52.80
58809;DHT22;44579;51.672;7.834;2023-06-19T06:41:28;26.80;52.50
58809;DHT22;44579;51.672;7.834;2023-06-19T06:43:54;26.80;52.30
58809;DHT22;44579;51.672;7.834;2023-06-19T06:46:22;26.80;52.10
58809;DHT22;44579;51.672;7.834;2023-06-19T06:48:49;26.80;52.00
58809;DHT22;44579;51.672;7.834;2023-06-19T06:51:16;26.70;51.90
58809;DHT22;44579;51.672;7.834;2023-06-19T06:53:43;26.60;51.70
58809;DHT22;44579;51.672;7.834;2023-06-19T06:56:10;26.50;51.80
58809;DHT22;44579;51.672;7.834;2023-06-19T06:58:37;26.40;51.80
58809;DHT22;44579;51.672;7.834;2023-06-19T07:01:05;26.40;51.60
58809;DHT22;44579;51.672;7.834;2023-06-19T07:03:32;26.40;51.50
58809;DHT22;44579;51.672;7.834;2023-06-19T07:05:59;26.40;51.60
58809;DHT22;44579;51.672;7.834;2023-06-19T07:08:25;26.40;51.60
58809;DHT22;44579;51.672;7.834;2023-06-19T07:10:52;26.40;51.70
58809;DHT22;44579;51.672;7.834;2023-06-19T07:13:19;26.20;51.90
58809;DHT22;44579;51.672;7.834;2023-06-19T07:15:47;26.10;52.20
58809;DHT22;44579;51.672;7.834;2023-06-19T07:18:16;25.90;52.40
58809;DHT22;44579;51.672;7.834;2023-06-19T07:20:45;25.70;52.60
58809;DHT22;44579;51.672;7.834;2023-06-19T07:23:12;25.50;52.70
58809;DHT22;44579;51.672;7.834;2023-06-19T07:25:40;25.40;53.00
58809;DHT22;44579;51.672;7.834;2023-06-19T07:28:07;25.40;52.80
58809;DHT22;44579;51.672;7.834;2023-06-19T07:30:34;25.50;52.70
58809;DHT22;44579;51.672;7.834;2023-06-19T07:33:01;25.50;52.40
58809;DHT22;44579;51.672;7.834;2023-06-19T07:35:27;25.50;52.40
58809;DHT22;44579;51.672;7.834;2023-06-19T07:37:54;25.50;52.50
58809;DHT22;44579;51.672;7.834;2023-06-19T07:40:21;25.50;52.50
58809;DHT22;44579;51.672;7.834;2023-06-19T07:42:48;25.40;52.70
58809;DHT22;44579;51.672;7.834;2023-06-19T07:45:15;25.40;52.80
58809;DHT22;44579;51.672;7.834;2023-06-19T07:47:42;25.40;52.70
58809;DHT22;44579;51.672;7.834;2023-06-19T07:50:09;25.50;52.60
58809;DHT22;44579;51.672;7.834;2023-06-19T07:52:36;25.60;52.50
58809;DHT22;44579;51.672;7.834;2023-06-19T07:55:02;25.60;52.50
58809;DHT22;44579;51.672;7.834;2023-06-19T07:57:30;25.60;52.50
58809;DHT22;44579;51.672;7.834;2023-06-19T07:59:56;25.70;52.50
58809;DHT22;44579;51.672;7.834;2023-06-19T08:02:24;25.70;52.40
58809;DHT22;44579;51.672;7.834;2023-06-19T08:04:51;25.60;52.30
58809;DHT22;44579;51.672;7.834;2023-06-19T08:07:18;25.60;52.70
58809;DHT22;44579;51.672;7.834;2023-06-19T08:09:45;25.50;53.00
58809;DHT22;44579;51.672;7.834;2023-06-19T08:12:22;25.60;52.90
58809;DHT22;44579;51.672;7.834;2023-06-19T08:14:49;25.70;52.90
58809;DHT22;44579;51.672;7.834;2023-06-19T08:17:16;25.80;52.80
58809;DHT22;44579;51.672;7.834;2023-06-19T08:19:43;25.90;52.80
58809;DHT22;44579;51.672;7.834;2023-06-19T08:22:11;26.00;52.70
58809;DHT22;44579;51.672;7.834;2023-06-19T08:24:38;26.10;52.40
58809;DHT22;44579;51.672;7.834;2023-06-19T08:27:08;26.20;52.30
58809;DHT22;44579;51.672;7.834;2023-06-19T08:29:36;26.40;52.10
58809;DHT22;44579;51.672;7.834;2023-06-19T08:32:03;26.50;52.00
58809;DHT22;44579;51.672;7.834;2023-06-19T08:34:30;26.40;52.10
58809;DHT22;44579;51.672;7.834;2023-06-19T08:36:57;26.50;52.40
58809;DHT22;44579;51.672;7.834;2023-06-19T08:39:24;26.60;52.60
58809;DHT22;44579;51.672;7.834;2023-06-19T08:41:53;26.70;52.30
58809;DHT22;44579;51.672;7.834;2023-06-19T08:44:20;26.80;52.40
58809;DHT22;44579;51.672;7.834;2023-06-19T08:46:47;26.90;52.30
58809;DHT22;44579;51.672;7.834;2023-06-19T08:49:14;26.90;52.30
58809;DHT22;44579;51.672;7.834;2023-06-19T08:51:42;26.80;52.30
58809;DHT22;44579;51.672;7.834;2023-06-19T08:54:10;26.50;52.50
58809;DHT22;44579;51.672;7.834;2023-06-19T08:56:39;26.40;52.70
58809;DHT22;44579;51.672;7.834;2023-06-19T08:59:08;26.40;52.80
58809;DHT22;44579;51.672;7.834;2023-06-19T09:01:34;26.40;52.60
58809;DHT22;44579;51.672;7.834;2023-06-19T09:04:07;26.60;52.60
58809;DHT22;44579;51.672;7.834;2023-06-19T09:06:35;26.60;52.40
58809;DHT22;44579;51.672;7.834;2023-06-19T09:09:05;26.70;52.40
58809;DHT22;44579;51.672;7.834;2023-06-19T09:11:36;26.80;52.30
58809;DHT22;44579;51.672;7.834;2023-06-19T09:14:06;26.90;52.20
58809;DHT22;44579;51.672;7.834;2023-06-19T09:16:37;26.80;52.20
58809;DHT22;44579;51.672;7.834;2023-06-19T09:19:04;26.70;52.60
58809;DHT22;44579;51.672;7.834;2023-06-19T09:21:35;26.60;52.70
58809;DHT22;44579;51.672;7.834;2023-06-19T09:24:03;26.60;52.90
58809;DHT22;44579;51.672;7.834;2023-06-19T09:26:30;26.60;53.60
58809;DHT22;44579;51.672;7.834;2023-06-19T09:28:57;26.60;52.70
58809;DHT22;44579;51.672;7.834;2023-06-19T09:31:33;26.60;52.60
58809;DHT22;44579;51.672;7.834;2023-06-19T09:34:00;26.60;52.60
58809;DHT22;44579;51.672;7.834;2023-06-19T09:36:27;26.50;52.60
58809;DHT22;44579;51.672;7.834;2023-06-19T09:38:55;26.60;52.70
58809;DHT22;44579;51.672;7.834;2023-06-19T09:41:23;26.60;52.60
58809;DHT22;44579;51.672;7.834;2023-06-19T09:43:50;26.70;52.40
58809;DHT22;44579;51.672;7.834;2023-06-19T09:46:20;26.90;52.30
58809;DHT22;44579;51.672;7.834;2023-06-19T09:48:48;27.00;52.20
58809;DHT22;44579;51.672;7.834;2023-06-19T09:51:18;27.10;52.20
58809;DHT22;44579;51.672;7.834;2023-06-19T09:53:45;27.10;52.20
58809;DHT22;44579;51.672;7.834;2023-06-19T09:56:13;27.10;52.20
58809;DHT22;44579;51.672;7.834;2023-06-19T09:58:40;27.20;52.30
58809;DHT22;44579;51.672;7.834;2023-06-19T10:01:09;27.20;52.40
58809;DHT22;44579;51.672;7.834;2023-06-19T10:03:36;27.30;52.40
58809;DHT22;44579;51.672;7.834;2023-06-19T10:06:04;27.40;52.30
58809;DHT22;44579;51.672;7.834;2023-06-19T10:08:40;27.50;52.20
58809;DHT22;44579;51.672;7.834;2023-06-19T10:11:07;27.60;52.10
58809;DHT22;44579;51.672;7.834;2023-06-19T10:13:35;27.60;52.10
58809;DHT22;44579;51.672;7.834;2023-06-19T10:16:03;27.70;52.10
58809;DHT22;44579;51.672;7.834;2023-06-19T10:18:31;27.60;51.90
58809;DHT22;44579;51.672;7.834;2023-06-19T10:20:58;27.50;52.10
58809;DHT22;44579;51.672;7.834;2023-06-19T10:23:25;27.40;52.30
58809;DHT22;44579;51.672;7.834;2023-06-19T10:25:55;27.40;52.40
58809;DHT22;44579;51.672;7.834;2023-06-19T10:28:23;27.40;52.30
58809;DHT22;44579;51.672;7.834;2023-06-19T10:33:22;27.50;52.10
58809;DHT22;44579;51.672;7.834;2023-06-19T10:35:52;27.50;52.10
58809;DHT22;44579;51.672;7.834;2023-06-19T10:38:19;27.50;52.00
58809;DHT22;44579;51.672;7.834;2023-06-19T10:40:49;27.40;52.10
58809;DHT22;44579;51.672;7.834;2023-06-19T10:43:22;27.30;52.20
58809;DHT22;44579;51.672;7.834;2023-06-19T10:45:54;27.30;52.30
58809;DHT22;44579;51.672;7.834;2023-06-19T10:48:22;27.40;52.20
58809;DHT22;44579;51.672;7.834;2023-06-19T10:50:49;27.50;52.10
58809;DHT22;44579;51.672;7.834;2023-06-19T10:56:12;27.70;51.90
58809;DHT22;44579;51.672;7.834;2023-06-19T10:58:39;27.70;52.00
58809;DHT22;44579;51.672;7.834;2023-06-19T11:01:08;27.70;52.10
58809;DHT22;44579;51.672;7.834;2023-06-19T11:03:35;27.70;52.10
58809;DHT22;44579;51.672;7.834;2023-06-19T11:06:02;27.70;51.90
58809;DHT22;44579;51.672;7.834;2023-06-19T11:08:29;27.60;51.90
58809;DHT22;44579;51.672;7.834;2023-06-19T11:10:56;27.60;52.00
58809;DHT22;44579;51.672;7.834;2023-06-19T11:13:23;27.70;52.00
58809;DHT22;44579;51.672;7.834;2023-06-19T11:15:50;27.80;51.90
58809;DHT22;44579;51.672;7.834;2023-06-19T11:18:18;27.80;51.60
58809;DHT22;44579;51.672;7.834;2023-06-19T11:23:12;28.00;51.40
58809;DHT22;44579;51.672;7.834;2023-06-19T11:25:39;28.10;51.30
58809;DHT22;44579;51.672;7.834;2023-06-19T11:28:13;28.10;51.20
58809;DHT22;44579;51.672;7.834;2023-06-19T11:30:40;28.20;51.20
58809;DHT22;44579;51.672;7.834;2023-06-19T11:33:16;28.30;51.20
58809;DHT22;44579;51.672;7.834;2023-06-19T11:35:47;28.40;51.10
58809;DHT22;44579;51.672;7.834;2023-06-19T11:38:22;28.50;51.10
58809;DHT22;44579;51.672;7.834;2023-06-19T11:40:49;28.50;50.90
58809;DHT22;44579;51.672;7.834;2023-06-19T11:43:26;28.40;50.90
58809;DHT22;44579;51.672;7.834;2023-06-19T11:45:53;28.40;51.10
58809;DHT22;44579;51.672;7.834;2023-06-19T11:48:23;28.40;51.10
58809;DHT22;44579;51.672;7.834;2023-06-19T11:50:51;28.40;51.00
58809;DHT22;44579;51.672;7.834;2023-06-19T11:53:19;28.50;51.00
58809;DHT22;44579;51.672;7.834;2023-06-19T11:55:46;28.40;50.80
58809;DHT22;44579;51.672;7.834;2023-06-19T11:58:13;28.50;50.90
58809;DHT22;44579;51.672;7.834;2023-06-19T12:00:42;28.70;50.70
58809;DHT22;44579;51.672;7.834;2023-06-19T12:03:09;28.90;50.40
58809;DHT22;44579;51.672;7.834;2023-06-19T12:05:37;28.90;49.40
58809;DHT22;44579;51.672;7.834;2023-06-19T12:08:04;29.00;49.60
58809;DHT22;44579;51.672;7.834;2023-06-19T12:10:32;29.10;50.30
58809;DHT22;44579;51.672;7.834;2023-06-19T12:12:59;29.00;49.40
58809;DHT22;44579;51.672;7.834;2023-06-19T12:15:26;28.80;49.60
58809;DHT22;44579;51.672;7.834;2023-06-19T12:17:53;28.90;49.80
58809;DHT22;44579;51.672;7.834;2023-06-19T12:20:19;29.00;49.80
58809;DHT22;44579;51.672;7.834;2023-06-19T12:22:46;29.10;49.70
58809;DHT22;44579;51.672;7.834;2023-06-19T12:25:13;29.20;49.70
58809;DHT22;44579;51.672;7.834;2023-06-19T12:27:40;29.20;49.30
58809;DHT22;44579;51.672;7.834;2023-06-19T12:30:08;29.00;49.30
58809;DHT22;44579;51.672;7.834;2023-06-19T12:32:35;29.00;49.50
58809;DHT22;44579;51.672;7.834;2023-06-19T12:35:04;29.00;49.60
58809;DHT22;44579;51.672;7.834;2023-06-19T12:37:31;29.00;49.50
58809;DHT22;44579;51.672;7.834;2023-06-19T12:40:02;29.10;49.50
58809;DHT22;44579;51.672;7.834;2023-06-19T12:42:34;29.20;49.30
58809;DHT22;44579;51.672;7.834;2023-06-19T12:45:02;29.20;49.10
58809;DHT22;44579;51.672;7.834;2023-06-19T12:47:29;29.10;48.90
58809;DHT22;44579;51.672;7.834;2023-06-19T12:49:56;29.20;48.90
58809;DHT22;44579;51.672;7.834;2023-06-19T12:52:23;29.30;48.90
58809;DHT22;44579;51.672;7.834;2023-06-19T12:54:52;29.40;48.80
58809;DHT22;44579;51.672;7.834;2023-06-19T12:57:19;29.40;48.80
58809;DHT22;44579;51.672;7.834;2023-06-19T12:59:48;29.20;48.40
58809;DHT22;44579;51.672;7.834;2023-06-19T13:02:18;29.20;48.70
58809;DHT22;44579;51.672;7.834;2023-06-19T13:04:44;29.10;48.60
58809;DHT22;44579;51.672;7.834;2023-06-19T13:07:11;29.10;48.60
58809;DHT22;44579;51.672;7.834;2023-06-19T13:09:39;29.20;48.60
58809;DHT22;44579;51.672;7.834;2023-06-19T13:12:06;29.20;48.60
58809;DHT22;44579;51.672;7.834;2023-06-19T13:14:33;29.20;48.20
58809;DHT22;44579;51.672;7.834;2023-06-19T13:17:00;29.20;48.30
58809;DHT22;44579;51.672;7.834;2023-06-19T13:19:28;29.20;48.30
58809;DHT22;44579;51.672;7.834;2023-06-19T13:21:55;29.40;48.30
58809;DHT22;44579;51.672;7.834;2023-06-19T13:24:21;29.50;48.20
58809;DHT22;44579;51.672;7.834;2023-06-19T13:26:48;29.50;48.00
58809;DHT22;44579;51.672;7.834;2023-06-19T13:29:15;29.50;48.30
58809;DHT22;44579;51.672;7.834;2023-06-19T13:31:42;29.50;48.30
58809;DHT22;44579;51.672;7.834;2023-06-19T13:34:09;29.60;48.30
58809;DHT22;44579;51.672;7.834;2023-06-19T13:36:39;29.60;48.20
58809;DHT22;44579;51.672;7.834;2023-06-19T13:39:07;29.60;48.20
58809;DHT22;44579;51.672;7.834;2023-06-19T13:41:33;29.70;48.30
58809;DHT22;44579;51.672;7.834;2023-06-19T13:44:01;29.60;48.00
58809;DHT22;44579;51.672;7.834;2023-06-19T13:46:28;29.60;47.80
58809;DHT22;44579;51.672;7.834;2023-06-19T13:48:57;29.60;47.90
58809;DHT22;44579;51.672;7.834;2023-06-19T13:51:24;29.70;47.90
58809;DHT22;44579;51.672;7.834;2023-06-19T13:53:54;29.70;48.00
58809;DHT22;44579;51.672;7.834;2023-06-19T13:56:21;29.70;48.00
58809;DHT22;44579;51.672;7.834;2023-06-19T13:58:50;29.70;47.90
58809;DHT22;44579;51.672;7.834;2023-06-19T14:01:17;29.70;47.90
58809;DHT22;44579;51.672;7.834;2023-06-19T14:03:43;29.70;47.90
58809;DHT22;44579;51.672;7.834;2023-06-19T14:06:10;29.80;48.60
58809;DHT22;44579;51.672;7.834;2023-06-19T14:08:38;30.00;47.90
58809;DHT22;44579;51.672;7.834;2023-06-19T14:11:06;30.00;47.80
58809;DHT22;44579;51.672;7.834;2023-06-19T14:13:33;30.10;47.70
58809;DHT22;44579;51.672;7.834;2023-06-19T14:15:59;30.20;47.80
58809;DHT22;44579;51.672;7.834;2023-06-19T14:18:26;30.00;47.30
58809;DHT22;44579;51.672;7.834;2023-06-19T14:20:53;29.90;47.60
58809;DHT22;44579;51.672;7.834;2023-06-19T14:23:20;29.90;47.60
58809;DHT22;44579;51.672;7.834;2023-06-19T14:25:48;29.80;47.60
58809;DHT22;44579;51.672;7.834;2023-06-19T14:28:14;29.80;47.60
58809;DHT22;44579;51.672;7.834;2023-06-19T14:30:41;29.80;47.60
58809;DHT22;44579;51.672;7.834;2023-06-19T14:33:08;29.70;47.60
58809;DHT22;44579;51.672;7.834;2023-06-19T14:35:41;29.70;47.70
58809;DHT22;44579;51.672;7.834;2023-06-19T14:38:08;29.70;47.60
58809;DHT22;44579;51.672;7.834;2023-06-19T14:40:36;29.80;47.50
58809;DHT22;44579;51.672;7.834;2023-06-19T14:43:11;29.80;47.30
58809;DHT22;44579;51.672;7.834;2023-06-19T14:45:38;29.70;47.40
58809;DHT22;44579;51.672;7.834;2023-06-19T14:48:06;29.60;47.50
58809;DHT22;44579;51.672;7.834;2023-06-19T14:50:33;29.40;47.60
58809;DHT22;44579;51.672;7.834;2023-06-19T14:53:00;29.40;47.50
58809;DHT22;44579;51.672;7.834;2023-06-19T14:55:27;29.50;47.40
58809;DHT22;44579;51.672;7.834;2023-06-19T14:57:54;29.60;47.20
58809;DHT22;44579;51.672;7.834;2023-06-19T15:00:21;29.60;46.20
58809;DHT22;44579;51.672;7.834;2023-06-19T15:02:48;29.50;45.50
58809;DHT22;44579;51.672;7.834;2023-06-19T15:05:14;29.30;45.80
58809;DHT22;44579;51.672;7.834;2023-06-19T15:07:41;29.20;46.00
58809;DHT22;44579;51.672;7.834;2023-06-19T15:10:08;29.20;45.60
58809;DHT22;44579;51.672;7.834;2023-06-19T15:12:35;29.20;45.30
58809;DHT22;44579;51.672;7.834;2023-06-19T15:15:02;29.20;45.30
58809;DHT22;44579;51.672;7.834;2023-06-19T15:17:29;29.20;45.10
58809;DHT22;44579;51.672;7.834;2023-06-19T15:19:56;29.20;45.10
58809;DHT22;44579;51.672;7.834;2023-06-19T15:22:23;29.40;45.20
58809;DHT22;44579;51.672;7.834;2023-06-19T15:24:50;29.50;45.10
58809;DHT22;44579;51.672;7.834;2023-06-19T15:27:16;29.50;45.10
58809;DHT22;44579;51.672;7.834;2023-06-19T15:29:43;29.60;45.10
58809;DHT22;44579;51.672;7.834;2023-06-19T15:32:10;29.60;45.00
58809;DHT22;44579;51.672;7.834;2023-06-19T15:34:37;29.70;45.00
58809;DHT22;44579;51.672;7.834;2023-06-19T15:37:04;29.70;45.10
58809;DHT22;44579;51.672;7.834;2023-06-19T15:39:31;29.70;45.20
58809;DHT22;44579;51.672;7.834;2023-06-19T15:41:58;29.70;45.20